Time;durP1;ratioP1;P1;durP2;ratioP2;P2;SDS_P1;SDS_P2;PMS_P1;PMS_P2;Temp;Humidity;BMP_temperature;BMP_pressure;BME280_temperature;BME280_humidity;BME280_pressure;Samples;Min_cycle;Max_cycle;Signal;HPM_P1;HPM_P2
2024/02/24 00:01:14;;;;;;;3.27;1.20;;;4.10;99.90;;;;;;5127393;27;20191;-84
2024/02/24 00:03:40;;;;;;;2.27;1.00;;;4.10;99.90;;;;;;5132998;27;20317;-84
2024/02/24 00:06:05;;;;;;;6.87;1.37;;;4.10;99.90;;;;;;5138806;27;20205;-84
2024/02/24 00:08:31;;;;;;;4.10;1.23;;;4.00;99.90;;;;;;5138831;27;20182;-85
2024/02/24 00:10:57;;;;;;;2.97;1.00;;;4.00;99.90;;;;;;5139391;27;20213;-84
2024/02/24 00:13:22;;;;;;;4.53;1.30;;;4.00;99.90;;;;;;5136103;27;20194;-85
2024/02/24 00:15:48;;;;;;;6.57;1.73;;;4.00;99.90;;;;;;5133777;27;20220;-84
2024/02/24 00:18:14;;;;;;;3.53;1.17;;;3.90;99.90;;;;;;5156999;27;20251;-86
2024/02/24 00:20:39;;;;;;;3.10;1.20;;;3.90;99.90;;;;;;5138793;27;20186;-84
2024/02/24 00:23:05;;;;;;;3.07;1.27;;;4.00;99.90;;;;;;5138714;27;20194;-84
2024/02/24 00:25:32;;;;;;;1.77;1.10;;;3.80;99.90;;;;;;5138986;27;20608;-85
2024/02/24 00:27:57;;;;;;;6.07;1.50;;;3.80;99.90;;;;;;5138908;27;20316;-86
2024/02/24 00:30:23;;;;;;;3.63;1.10;;;3.80;99.90;;;;;;5157217;27;20214;-86
2024/02/24 00:32:49;;;;;;;7.57;1.53;;;3.80;99.90;;;;;;5138801;27;20269;-85
2024/02/24 00:35:15;;;;;;;4.00;1.60;;;3.80;99.90;;;;;;5136837;27;20182;-84
2024/02/24 00:37:41;;;;;;;4.50;1.53;;;3.80;99.90;;;;;;5150097;27;20297;-84
2024/02/24 00:40:09;;;;;;;7.83;1.50;;;3.90;99.90;;;;;;5138573;27;20269;-84
2024/02/24 00:42:35;;;;;;;4.00;1.60;;;3.90;99.90;;;;;;5138766;27;20254;-84
2024/02/24 00:45:01;;;;;;;5.20;1.53;;;3.80;99.90;;;;;;5138710;27;20274;-84
2024/02/24 00:47:26;;;;;;;3.23;1.10;;;3.80;99.90;;;;;;5138288;27;20190;-84
2024/02/24 00:49:52;;;;;;;4.40;1.47;;;3.80;99.90;;;;;;5149551;27;20183;-84
2024/02/24 00:52:18;;;;;;;2.17;0.93;;;3.80;99.90;;;;;;5136705;27;20190;-85
2024/02/24 00:54:43;;;;;;;4.70;1.40;;;3.80;99.90;;;;;;5138557;27;20187;-85
2024/02/24 00:57:09;;;;;;;3.37;1.00;;;3.80;99.90;;;;;;5129946;27;20190;-85
2024/02/24 00:59:35;;;;;;;4.97;1.20;;;3.80;99.90;;;;;;5138206;27;20632;-83
2024/02/24 01:02:01;;;;;;;4.07;1.27;;;3.80;99.90;;;;;;5129774;27;20178;-85
2024/02/24 01:04:26;;;;;;;3.80;1.33;;;3.80;99.90;;;;;;5138190;27;20305;-86
2024/02/24 01:06:52;;;;;;;7.07;1.50;;;3.80;99.90;;;;;;5128611;27;20190;-86
2024/02/24 01:09:19;;;;;;;2.57;1.07;;;3.80;99.90;;;;;;5129445;27;20294;-85
2024/02/24 01:11:45;;;;;;;4.77;1.37;;;3.80;99.90;;;;;;5137786;27;20289;-86
2024/02/24 01:14:11;;;;;;;6.27;1.20;;;3.80;99.90;;;;;;5137611;27;20665;-84
2024/02/24 01:16:39;;;;;;;3.23;1.20;;;3.80;99.90;;;;;;5137775;27;20206;-84
2024/02/24 01:19:04;;;;;;;3.00;0.90;;;3.70;99.90;;;;;;5155263;27;20229;-84
2024/02/24 01:21:30;;;;;;;3.43;1.20;;;3.70;99.90;;;;;;5137358;27;20193;-83
2024/02/24 01:23:56;;;;;;;3.57;0.83;;;3.70;99.90;;;;;;5156107;27;20520;-84
2024/02/24 01:26:22;;;;;;;4.60;1.03;;;3.80;99.90;;;;;;5137575;27;20193;-83
2024/02/24 01:28:50;;;;;;;5.23;1.13;;;3.80;99.90;;;;;;5137718;27;20178;-84
2024/02/24 01:31:16;;;;;;;5.10;1.23;;;3.70;99.90;;;;;;5137539;27;20186;-84
2024/02/24 01:33:42;;;;;;;3.07;1.20;;;3.70;99.90;;;;;;5137565;27;20182;-84
2024/02/24 01:36:07;;;;;;;4.67;1.50;;;3.50;99.90;;;;;;5137348;27;20253;-83
2024/02/24 01:38:33;;;;;;;4.40;1.10;;;3.50;99.90;;;;;;5136880;27;20233;-83
2024/02/24 01:40:59;;;;;;;3.60;1.13;;;3.50;99.90;;;;;;5137519;27;20265;-86
2024/02/24 01:43:36;;;;;;;4.03;1.17;;;3.50;99.90;;;;;;5155937;27;20639;-85
2024/02/24 01:46:03;;;;;;;3.93;1.30;;;3.40;99.90;;;;;;5128921;27;20179;-85
2024/02/24 01:48:34;;;;;;;4.53;1.13;;;3.40;99.90;;;;;;5136846;27;20183;-85
2024/02/24 01:51:01;;;;;;;4.53;1.50;;;3.40;99.90;;;;;;5137535;27;20179;-85
2024/02/24 01:53:29;;;;;;;3.23;1.13;;;3.30;99.90;;;;;;5136980;27;20235;-85
2024/02/24 01:55:54;;;;;;;3.77;1.10;;;3.30;99.90;;;;;;5155827;27;20219;-85
2024/02/24 01:58:21;;;;;;;4.10;1.27;;;3.30;99.90;;;;;;5134267;27;20218;-84
2024/02/24 02:00:47;;;;;;;4.27;1.30;;;3.30;99.90;;;;;;5149694;27;20538;-84
2024/02/24 02:03:13;;;;;;;5.73;2.00;;;3.30;99.90;;;;;;5136924;27;20217;-84
2024/02/24 02:05:39;;;;;;;3.30;1.20;;;3.30;99.90;;;;;;5137338;27;20269;-84
2024/02/24 02:08:06;;;;;;;2.10;1.00;;;3.30;99.90;;;;;;5136375;27;20587;-83
2024/02/24 02:10:49;;;;;;;3.13;1.00;;;3.30;99.90;;;;;;5136957;27;20250;-84
2024/02/24 02:13:15;;;;;;;5.37;1.33;;;3.30;99.90;;;;;;5136764;27;20677;-85
2024/02/24 02:15:41;;;;;;;5.37;1.30;;;3.30;99.90;;;;;;5136854;27;20187;-84
2024/02/24 02:18:07;;;;;;;1.77;1.00;;;3.30;99.90;;;;;;5132817;28;20284;-83
2024/02/24 02:20:34;;;;;;;6.23;1.60;;;3.10;99.90;;;;;;5125111;28;20641;-84
2024/02/24 02:23:00;;;;;;;5.80;1.20;;;3.10;99.90;;;;;;5133415;28;20274;-85
2024/02/24 02:25:27;;;;;;;4.60;1.30;;;3.00;99.90;;;;;;5133484;28;20189;-84
2024/02/24 02:27:52;;;;;;;5.17;1.50;;;2.90;99.90;;;;;;5133334;27;20240;-84
2024/02/24 02:30:18;;;;;;;2.93;1.13;;;2.90;99.90;;;;;;5136224;27;20183;-84
2024/02/24 02:32:44;;;;;;;7.57;1.70;;;3.00;99.90;;;;;;5137643;27;20221;-85
2024/02/24 02:35:11;;;;;;;5.70;1.50;;;3.00;99.90;;;;;;5138705;27;20179;-84
2024/02/24 02:37:37;;;;;;;3.37;1.20;;;3.10;99.90;;;;;;5138370;27;20259;-85
2024/02/24 02:40:03;;;;;;;5.93;1.30;;;3.10;99.90;;;;;;5137573;27;20560;-85
2024/02/24 02:42:29;;;;;;;2.53;1.17;;;3.20;99.90;;;;;;5137446;27;20187;-86
2024/02/24 02:44:55;;;;;;;4.30;2.07;;;3.20;99.90;;;;;;5136472;27;20573;-84
2024/02/24 02:47:20;;;;;;;4.00;1.20;;;3.20;99.90;;;;;;5126787;27;20186;-83
2024/02/24 02:49:46;;;;;;;2.20;1.17;;;3.20;99.90;;;;;;5135896;27;20189;-84
2024/02/24 02:52:12;;;;;;;4.87;1.23;;;3.20;99.90;;;;;;5135653;27;20251;-83
2024/02/24 02:54:38;;;;;;;2.37;1.30;;;3.10;99.90;;;;;;5137150;27;20182;-83
2024/02/24 02:57:04;;;;;;;1.70;1.00;;;3.10;99.90;;;;;;5136677;27;20266;-84
2024/02/24 02:59:34;;;;;;;3.37;1.10;;;3.10;99.90;;;;;;5135649;27;20266;-84
2024/02/24 03:02:00;;;;;;;4.40;1.10;;;3.10;99.90;;;;;;5138143;27;20175;-84
2024/02/24 03:04:25;;;;;;;3.23;1.00;;;3.20;99.90;;;;;;5137048;27;20554;-83
2024/02/24 03:06:51;;;;;;;4.63;0.93;;;3.10;99.90;;;;;;5136780;27;20522;-84
2024/02/24 03:09:17;;;;;;;4.00;1.30;;;3.00;99.90;;;;;;5138284;27;20183;-84
2024/02/24 03:11:44;;;;;;;4.47;1.30;;;2.90;99.90;;;;;;5136619;27;20187;-83
2024/02/24 03:14:10;;;;;;;2.67;1.20;;;3.00;99.90;;;;;;5136582;27;20182;-84
2024/02/24 03:19:11;;;;;;;4.93;1.00;;;3.00;99.90;;;;;;5402674;22;20237;-86
2024/02/24 03:21:37;;;;;;;3.67;1.10;;;3.00;99.90;;;;;;5060020;28;20496;-83
2024/02/24 03:24:03;;;;;;;2.07;0.90;;;3.10;99.90;;;;;;5059681;28;20212;-84
2024/02/24 03:26:29;;;;;;;3.70;0.90;;;3.00;99.90;;;;;;5059686;28;20213;-83
2024/02/24 03:28:54;;;;;;;5.40;1.30;;;3.00;99.90;;;;;;5059472;28;20670;-83
2024/02/24 03:31:20;;;;;;;3.30;1.10;;;2.90;99.90;;;;;;5056921;28;20188;-84
2024/02/24 03:33:46;;;;;;;3.73;1.30;;;2.90;99.90;;;;;;5039190;28;20547;-83
2024/02/24 03:36:16;;;;;;;4.53;1.10;;;2.90;99.90;;;;;;5039439;28;20188;-84
2024/02/24 03:38:43;;;;;;;5.53;1.47;;;3.00;99.90;;;;;;5039135;28;20213;-83
2024/02/24 03:41:09;;;;;;;3.47;1.70;;;3.00;99.90;;;;;;5038880;28;20276;-84
2024/02/24 03:43:36;;;;;;;4.50;1.40;;;3.00;99.90;;;;;;5039416;28;20186;-83
2024/02/24 03:46:06;;;;;;;4.53;1.30;;;2.90;99.90;;;;;;5047241;28;20276;-84
2024/02/24 03:48:32;;;;;;;3.10;1.10;;;2.90;99.90;;;;;;5050738;28;20181;-85
2024/02/24 03:51:02;;;;;;;2.50;1.17;;;2.80;99.90;;;;;;5051219;28;20184;-84
2024/02/24 03:53:30;;;;;;;3.73;1.10;;;2.80;99.90;;;;;;5058880;28;20193;-85
2024/02/24 03:56:03;;;;;;;4.87;3.20;;;2.90;99.90;;;;;;5058851;28;20189;-85
2024/02/24 03:58:29;;;;;;;2.77;1.10;;;2.90;99.90;;;;;;5058435;28;20223;-85
2024/02/24 04:00:57;;;;;;;4.07;1.23;;;2.90;99.90;;;;;;5076734;28;20173;-84
2024/02/24 04:03:23;;;;;;;4.87;1.50;;;2.80;99.90;;;;;;5058278;28;20185;-85
2024/02/24 04:05:49;;;;;;;3.20;1.20;;;2.70;99.90;;;;;;5058443;28;20188;-84
2024/02/24 04:08:15;;;;;;;5.77;1.03;;;2.70;99.90;;;;;;5056291;28;20185;-83
2024/02/24 04:10:44;;;;;;;3.73;1.20;;;2.70;99.90;;;;;;5047130;28;20184;-83
2024/02/24 04:13:10;;;;;;;3.40;1.03;;;2.70;99.90;;;;;;5066048;28;20191;-83
2024/02/24 04:15:36;;;;;;;4.83;1.17;;;2.70;99.90;;;;;;5071905;28;20261;-83
2024/02/24 04:18:03;;;;;;;2.77;0.90;;;2.70;99.90;;;;;;5063491;28;20629;-83
2024/02/24 04:20:30;;;;;;;6.10;0.93;;;2.80;99.90;;;;;;5058458;28;20191;-83
2024/02/24 04:22:56;;;;;;;4.50;1.30;;;2.80;99.90;;;;;;5058443;28;20192;-83
2024/02/24 04:25:21;;;;;;;3.37;0.90;;;2.80;99.90;;;;;;5047390;28;20189;-83
2024/02/24 04:27:47;;;;;;;5.07;1.30;;;2.80;99.90;;;;;;5038248;28;20269;-83
2024/02/24 04:30:15;;;;;;;3.73;1.20;;;2.80;99.90;;;;;;5054578;28;20208;-83
2024/02/24 04:32:41;;;;;;;4.00;1.40;;;2.80;99.90;;;;;;5058185;28;20181;-83
2024/02/24 04:35:07;;;;;;;2.97;1.13;;;2.80;99.90;;;;;;5048955;28;20616;-84
2024/02/24 04:37:33;;;;;;;6.50;1.20;;;2.80;99.90;;;;;;5057683;28;20211;-84
2024/02/24 04:39:58;;;;;;;1.97;1.20;;;2.80;99.90;;;;;;5058013;28;20604;-85
2024/02/24 04:42:24;;;;;;;2.53;1.07;;;2.80;99.90;;;;;;5058094;28;20263;-85
2024/02/24 04:44:50;;;;;;;4.47;1.33;;;2.70;99.90;;;;;;5075899;28;20173;-84
2024/02/24 04:47:16;;;;;;;3.43;1.30;;;2.70;99.90;;;;;;5055752;28;20185;-85
2024/02/24 04:49:42;;;;;;;4.10;1.30;;;2.80;99.90;;;;;;5071849;28;20189;-83
2024/02/24 04:52:07;;;;;;;4.77;1.40;;;2.80;99.90;;;;;;5048560;28;20182;-83
2024/02/24 04:54:33;;;;;;;4.70;1.33;;;2.80;99.90;;;;;;5053422;28;20178;-83
2024/02/24 04:56:59;;;;;;;2.10;1.20;;;2.70;99.90;;;;;;5063973;28;20268;-83
2024/02/24 04:59:24;;;;;;;2.50;1.10;;;2.60;99.90;;;;;;5066741;28;20308;-84
2024/02/24 05:01:50;;;;;;;4.67;1.17;;;2.60;99.90;;;;;;5057808;28;20185;-84
2024/02/24 05:04:16;;;;;;;2.37;1.10;;;2.40;99.90;;;;;;5055311;28;20243;-83
2024/02/24 05:06:42;;;;;;;3.33;1.20;;;2.30;99.90;;;;;;5050959;28;20264;-83
2024/02/24 05:09:11;;;;;;;2.70;1.03;;;2.30;99.90;;;;;;5049019;28;20264;-83
2024/02/24 05:11:38;;;;;;;2.20;1.10;;;2.30;99.90;;;;;;5075486;28;20185;-83
2024/02/24 05:14:04;;;;;;;5.53;1.50;;;2.40;99.90;;;;;;5057517;28;20181;-84
2024/02/24 05:16:32;;;;;;;8.30;1.40;;;2.40;99.90;;;;;;5057332;28;20192;-83
2024/02/24 05:18:58;;;;;;;2.30;1.17;;;2.40;99.90;;;;;;5074481;28;20232;-82
2024/02/24 05:21:26;;;;;;;3.00;1.00;;;2.40;99.90;;;;;;5056883;28;20185;-85
2024/02/24 05:23:52;;;;;;;4.63;1.30;;;2.40;99.90;;;;;;5049511;28;20192;-85
2024/02/24 05:26:28;;;;;;;2.60;1.30;;;2.40;99.90;;;;;;5048680;28;20181;-86
2024/02/24 05:28:57;;;;;;;3.30;1.20;;;2.50;99.90;;;;;;5074816;28;20169;-85
2024/02/24 05:31:26;;;;;;;4.30;1.30;;;2.40;99.90;;;;;;5048846;28;20191;-84
2024/02/24 05:33:54;;;;;;;2.53;1.10;;;2.40;99.90;;;;;;5056833;28;20191;-84
2024/02/24 05:36:20;;;;;;;2.70;1.00;;;2.40;99.90;;;;;;5057037;28;20662;-84
2024/02/24 05:38:46;;;;;;;2.23;1.10;;;2.40;99.90;;;;;;5074764;28;20201;-84
2024/02/24 05:41:14;;;;;;;4.07;1.30;;;2.40;99.90;;;;;;5047438;28;20181;-84
2024/02/24 05:43:40;;;;;;;9.17;1.60;;;2.40;99.90;;;;;;5042245;28;20181;-83
2024/02/24 05:46:06;;;;;;;3.53;1.33;;;2.40;99.90;;;;;;5048571;28;20627;-83
2024/02/24 05:48:36;;;;;;;2.30;0.93;;;2.40;99.90;;;;;;5056335;28;20236;-83
2024/02/24 05:51:08;;;;;;;5.03;1.43;;;2.40;99.90;;;;;;5066501;28;20706;-84
2024/02/24 05:53:34;;;;;;;1.53;1.00;;;2.40;99.90;;;;;;5067408;28;20183;-83
2024/02/24 05:56:00;;;;;;;3.83;1.10;;;2.50;99.90;;;;;;5066589;28;20169;-84
2024/02/24 05:58:25;;;;;;;4.57;1.10;;;2.40;99.90;;;;;;5044978;28;20225;-84
2024/02/24 06:00:51;;;;;;;4.93;1.60;;;2.50;99.90;;;;;;5051785;28;20181;-83
2024/02/24 06:03:17;;;;;;;5.77;1.20;;;2.50;99.90;;;;;;5056525;28;20189;-84
2024/02/24 06:05:42;;;;;;;2.27;1.10;;;2.50;99.90;;;;;;5056903;28;20205;-84
2024/02/24 06:08:08;;;;;;;3.87;1.27;;;2.50;99.90;;;;;;5055675;28;20254;-83
2024/02/24 06:10:37;;;;;;;4.07;1.33;;;2.50;99.90;;;;;;5067405;28;20188;-84
2024/02/24 06:13:04;;;;;;;5.27;1.20;;;2.50;99.90;;;;;;5056643;28;20173;-82
2024/02/24 06:15:30;;;;;;;4.13;1.17;;;2.50;99.90;;;;;;5056631;28;20180;-84
2024/02/24 06:17:56;;;;;;;2.77;1.00;;;2.50;99.90;;;;;;5055593;28;20779;-83
2024/02/24 06:20:22;;;;;;;2.93;1.10;;;2.50;99.90;;;;;;5056167;28;20196;-84
2024/02/24 06:22:48;;;;;;;3.93;1.23;;;2.50;99.90;;;;;;5048357;28;20188;-83
2024/02/24 06:25:14;;;;;;;3.93;1.23;;;2.40;99.90;;;;;;5055927;28;20185;-83
2024/02/24 06:27:40;;;;;;;4.03;1.00;;;2.40;99.90;;;;;;5041488;28;20189;-83
2024/02/24 06:30:07;;;;;;;2.90;1.10;;;2.40;99.90;;;;;;5039347;28;20193;-84
2024/02/24 06:32:33;;;;;;;3.80;1.30;;;2.40;99.90;;;;;;5040545;28;20185;-83
2024/02/24 06:34:58;;;;;;;3.10;1.17;;;2.30;99.90;;;;;;5047685;28;20563;-83
2024/02/24 06:37:24;;;;;;;3.83;0.90;;;2.40;99.90;;;;;;5054793;28;20185;-83
2024/02/24 06:39:50;;;;;;;3.20;1.33;;;2.40;99.90;;;;;;5055600;28;20243;-84
2024/02/24 06:42:16;;;;;;;7.80;1.73;;;2.40;99.90;;;;;;5054167;28;20181;-83
2024/02/24 06:44:41;;;;;;;2.70;1.03;;;2.40;99.90;;;;;;5041635;28;20177;-83
2024/02/24 06:47:08;;;;;;;3.83;1.33;;;2.50;99.90;;;;;;5055399;28;20264;-83
2024/02/24 06:49:34;;;;;;;6.43;1.73;;;2.50;99.90;;;;;;5051287;28;20181;-84
2024/02/24 06:52:00;;;;;;;3.60;1.20;;;2.60;99.90;;;;;;5056574;28;20187;-84
2024/02/24 06:54:25;;;;;;;5.50;1.00;;;2.60;99.90;;;;;;5055995;28;20177;-84
2024/02/24 06:56:51;;;;;;;5.67;1.37;;;2.60;99.90;;;;;;5056405;28;20184;-84
2024/02/24 06:59:17;;;;;;;4.13;1.20;;;2.70;99.90;;;;;;5056137;28;20209;-84
2024/02/24 07:01:44;;;;;;;2.83;1.30;;;2.70;99.90;;;;;;5074276;28;20204;-84
2024/02/24 07:04:10;;;;;;;3.03;1.27;;;2.80;99.90;;;;;;5074006;28;20208;-84
2024/02/24 07:06:36;;;;;;;3.87;1.27;;;2.80;99.90;;;;;;5054806;28;20200;-84
2024/02/24 07:09:02;;;;;;;4.47;1.43;;;2.90;99.90;;;;;;5056006;28;20208;-84
2024/02/24 07:11:30;;;;;;;2.20;0.80;;;2.90;99.90;;;;;;5074134;28;20177;-85
2024/02/24 07:13:56;;;;;;;5.23;1.60;;;2.90;99.90;;;;;;5055570;28;20215;-84
2024/02/24 07:16:22;;;;;;;4.57;1.47;;;2.90;99.90;;;;;;5055922;28;20217;-84
2024/02/24 07:18:47;;;;;;;4.50;1.20;;;2.80;99.90;;;;;;5039222;28;20291;-85
2024/02/24 07:21:14;;;;;;;3.00;1.37;;;2.80;99.90;;;;;;5057764;28;20181;-84
2024/02/24 07:23:40;;;;;;;3.57;1.50;;;2.90;99.90;;;;;;5059695;28;20185;-84
2024/02/24 07:26:05;;;;;;;5.23;1.33;;;2.90;99.90;;;;;;5059653;28;20612;-85
2024/02/24 07:28:31;;;;;;;4.47;1.20;;;3.00;99.90;;;;;;5059312;28;20216;-84
2024/02/24 07:30:57;;;;;;;6.47;1.33;;;3.00;99.90;;;;;;5059474;28;20180;-83
2024/02/24 07:33:24;;;;;;;3.10;1.30;;;3.10;99.90;;;;;;5058954;28;20181;-84
2024/02/24 07:35:50;;;;;;;3.97;1.30;;;3.20;99.90;;;;;;5058598;28;20204;-84
2024/02/24 07:38:15;;;;;;;4.00;1.63;;;3.30;99.90;;;;;;5050601;28;20300;-85
2024/02/24 07:40:41;;;;;;;4.57;1.43;;;3.40;99.90;;;;;;5059416;28;20275;-85
2024/02/24 07:43:08;;;;;;;5.07;1.17;;;3.60;99.90;;;;;;5068282;28;20216;-85
2024/02/24 07:45:36;;;;;;;3.60;1.20;;;3.70;99.90;;;;;;5047307;28;20325;-85
2024/02/24 07:48:06;;;;;;;2.87;1.03;;;3.80;99.90;;;;;;5055726;28;20627;-84
2024/02/24 07:50:32;;;;;;;4.00;1.00;;;4.00;99.90;;;;;;5068735;28;20188;-84
2024/02/24 07:53:00;;;;;;;4.90;1.47;;;4.00;99.90;;;;;;5057573;28;20166;-85
2024/02/24 07:55:25;;;;;;;4.43;1.30;;;4.10;99.90;;;;;;5065279;28;20185;-84
2024/02/24 07:57:51;;;;;;;5.77;1.30;;;4.20;99.90;;;;;;5044339;28;20197;-84
2024/02/24 08:00:17;;;;;;;4.73;1.50;;;4.20;99.90;;;;;;5058416;28;20189;-85
2024/02/24 08:02:47;;;;;;;5.13;1.70;;;4.20;99.90;;;;;;5059016;28;20219;-85
2024/02/24 08:05:13;;;;;;;3.80;1.30;;;4.20;99.90;;;;;;5057317;28;20184;-84
2024/02/24 08:07:38;;;;;;;4.03;1.40;;;4.20;99.90;;;;;;5069394;28;20616;-85
2024/02/24 08:10:04;;;;;;;3.73;1.10;;;4.10;99.90;;;;;;5058775;28;20246;-86
2024/02/24 08:12:35;;;;;;;2.40;1.27;;;4.20;99.90;;;;;;5058973;28;20181;-85
2024/02/24 08:15:01;;;;;;;5.40;1.63;;;4.20;99.90;;;;;;5058857;28;20185;-86
2024/02/24 08:17:27;;;;;;;6.17;1.73;;;4.20;99.90;;;;;;5076494;28;20212;-86
2024/02/24 08:19:52;;;;;;;5.67;1.80;;;4.30;99.90;;;;;;5058677;28;20710;-86
2024/02/24 08:22:20;;;;;;;3.73;1.20;;;4.30;99.90;;;;;;5050439;28;20177;-85
2024/02/24 08:24:45;;;;;;;3.47;1.53;;;4.40;99.90;;;;;;5058624;28;20219;-84
2024/02/24 08:27:11;;;;;;;3.53;1.40;;;4.50;99.90;;;;;;5048898;28;20182;-83
2024/02/24 08:29:37;;;;;;;4.43;1.60;;;4.70;99.90;;;;;;5037832;28;20224;-84
2024/02/24 08:32:03;;;;;;;6.73;1.47;;;4.80;99.90;;;;;;5064437;28;20307;-85
2024/02/24 08:34:29;;;;;;;4.10;1.30;;;5.00;99.90;;;;;;5051523;28;20250;-85
2024/02/24 08:36:54;;;;;;;5.93;1.60;;;5.10;99.90;;;;;;5058369;28;20327;-85
2024/02/24 08:39:20;;;;;;;7.07;2.23;;;5.20;99.90;;;;;;5075850;28;20662;-85
2024/02/24 08:41:45;;;;;;;2.80;1.60;;;5.30;99.90;;;;;;5058320;28;20188;-85
2024/02/24 08:44:16;;;;;;;6.23;1.47;;;5.30;99.90;;;;;;5056546;28;20282;-85
2024/02/24 08:46:42;;;;;;;3.13;1.30;;;5.40;99.90;;;;;;5069650;28;20205;-85
2024/02/24 08:49:08;;;;;;;4.90;1.80;;;5.50;99.90;;;;;;5049395;28;20589;-84
2024/02/24 08:51:34;;;;;;;3.97;1.43;;;5.60;99.90;;;;;;5058096;28;20185;-84
2024/02/24 08:54:04;;;;;;;4.63;1.70;;;5.70;99.90;;;;;;5058025;28;20185;-84
2024/02/24 08:56:29;;;;;;;5.20;1.80;;;5.80;99.90;;;;;;5075785;28;20209;-83
2024/02/24 08:58:55;;;;;;;4.77;1.37;;;5.90;99.90;;;;;;5050388;28;20248;-84
2024/02/24 09:01:20;;;;;;;5.93;1.53;;;6.00;99.90;;;;;;5048501;28;20235;-85
2024/02/24 09:03:50;;;;;;;3.93;1.37;;;6.10;99.90;;;;;;5051011;28;20196;-85
2024/02/24 09:06:16;;;;;;;4.93;1.53;;;6.20;99.90;;;;;;5039305;28;20738;-85
2024/02/24 09:08:41;;;;;;;3.43;1.50;;;6.20;99.90;;;;;;5051119;28;20272;-84
2024/02/24 09:11:07;;;;;;;4.20;1.60;;;6.20;99.90;;;;;;5075438;28;20265;-85
2024/02/24 09:13:34;;;;;;;1.93;1.27;;;6.20;99.90;;;;;;5075119;28;20181;-86
2024/02/24 09:16:00;;;;;;;4.73;1.40;;;6.30;99.90;;;;;;5057519;28;20242;-84
2024/02/24 09:18:26;;;;;;;4.67;1.53;;;6.30;99.90;;;;;;5056775;28;20241;-85
2024/02/24 09:20:52;;;;;;;2.60;1.20;;;6.40;99.90;;;;;;5057235;28;20192;-86
2024/02/24 09:23:19;;;;;;;3.83;1.00;;;6.50;99.90;;;;;;5057433;28;20185;-85
2024/02/24 09:25:45;;;;;;;5.07;1.30;;;6.60;99.90;;;;;;5057682;28;20523;-86
2024/02/24 09:28:10;;;;;;;1.33;0.90;;;6.50;99.90;;;;;;5057461;28;20186;-85
2024/02/24 09:30:37;;;;;;;2.03;1.23;;;6.60;99.90;;;;;;5037370;28;20505;-87
2024/02/24 09:33:03;;;;;;;1.43;0.80;;;6.60;99.90;;;;;;5053846;28;20185;-85
2024/02/24 09:35:28;;;;;;;1.00;0.80;;;6.70;99.90;;;;;;5057478;28;20192;-89
2024/02/24 09:37:54;;;;;;;3.50;1.10;;;6.90;99.90;;;;;;5056589;28;20216;-88
2024/02/24 09:40:20;;;;;;;3.17;1.13;;;6.90;99.90;;;;;;5056974;28;20822;-88
2024/02/24 09:42:47;;;;;;;2.40;0.77;;;6.90;99.90;;;;;;5066711;28;20185;-88
2024/02/24 09:45:14;;;;;;;2.30;0.80;;;7.00;99.90;;;;;;5057168;28;20181;-84
2024/02/24 09:47:44;;;;;;;1.60;0.80;;;7.10;99.90;;;;;;5056414;28;20209;-85
2024/02/24 09:50:13;;;;;;;1.33;0.80;;;7.10;99.90;;;;;;5056704;28;20280;-88
2024/02/24 09:52:40;;;;;;;2.10;0.70;;;7.10;99.90;;;;;;5057330;28;20267;-89
2024/02/24 09:55:06;;;;;;;1.43;0.90;;;7.10;99.90;;;;;;5056918;28;20522;-86
2024/02/24 09:57:36;;;;;;;2.13;0.87;;;7.10;99.90;;;;;;5049413;28;20180;-88
2024/02/24 10:00:06;;;;;;;1.53;0.70;;;7.10;99.90;;;;;;5056871;28;20196;-89
2024/02/24 10:02:32;;;;;;;2.77;0.90;;;7.10;99.90;;;;;;5057311;28;20184;-86
2024/02/24 10:05:07;;;;;;;1.43;0.73;;;7.00;99.90;;;;;;5057473;28;20189;-89
2024/02/24 10:07:34;;;;;;;0.90;0.70;;;7.10;99.90;;;;;;5041233;28;20181;-87
2024/02/24 10:10:00;;;;;;;1.33;0.73;;;7.10;99.90;;;;;;5075076;28;20539;-89
2024/02/24 10:12:29;;;;;;;0.67;0.57;;;7.10;99.90;;;;;;5048676;28;20234;-91
2024/02/24 10:14:56;;;;;;;2.67;0.83;;;7.00;99.90;;;;;;5056525;28;20193;-85
2024/02/24 10:17:37;;;;;;;1.30;0.73;;;7.00;99.90;;;;;;5056660;28;20181;-89
2024/02/24 10:20:03;;;;;;;4.00;1.30;;;7.00;99.90;;;;;;5064368;28;20199;-84
2024/02/24 10:22:29;;;;;;;0.87;0.77;;;6.90;99.90;;;;;;5056483;28;20858;-84
2024/02/24 10:24:56;;;;;;;3.50;1.00;;;7.00;99.90;;;;;;5074465;28;20177;-89
2024/02/24 10:27:22;;;;;;;2.83;0.87;;;7.10;99.90;;;;;;5056038;28;20224;-87
2024/02/24 10:29:51;;;;;;;2.53;1.03;;;7.10;99.90;;;;;;5056437;28;20208;-86
2024/02/24 10:32:18;;;;;;;5.40;1.20;;;7.20;99.90;;;;;;5040170;28;20535;-90
2024/02/24 10:34:44;;;;;;;4.03;1.40;;;7.20;99.90;;;;;;5056301;28;20181;-85
2024/02/24 10:37:10;;;;;;;3.87;1.37;;;7.30;99.90;;;;;;5056429;28;20174;-85
2024/02/24 10:39:39;;;;;;;3.17;1.50;;;7.30;99.90;;;;;;5056400;28;20532;-87
2024/02/24 10:42:06;;;;;;;3.60;1.40;;;7.40;99.90;;;;;;5056507;28;20181;-87
2024/02/24 10:44:40;;;;;;;2.57;1.30;;;7.50;99.90;;;;;;5056804;28;20189;-88
2024/02/24 10:47:06;;;;;;;10.23;1.90;;;7.60;99.90;;;;;;5048412;28;20577;-86
2024/02/24 10:49:32;;;;;;;5.93;2.00;;;7.70;99.90;;;;;;5056302;28;20276;-88
2024/02/24 10:51:58;;;;;;;5.97;1.37;;;7.80;99.90;;;;;;5060598;28;20184;-86
2024/02/24 10:54:31;;;;;;;5.50;1.30;;;8.20;99.90;;;;;;5060406;28;20177;-89
2024/02/24 10:56:59;;;;;;;4.47;1.43;;;8.30;99.90;;;;;;5060536;28;20633;-86
2024/02/24 10:59:29;;;;;;;3.53;1.30;;;8.20;99.90;;;;;;5060395;28;20205;-85
2024/02/24 11:02:00;;;;;;;2.70;1.20;;;8.20;99.90;;;;;;5060620;28;20177;-87
2024/02/24 11:04:28;;;;;;;3.90;1.50;;;8.20;99.90;;;;;;5060490;28;20211;-85
2024/02/24 11:06:55;;;;;;;4.93;1.47;;;8.10;99.90;;;;;;5059995;28;20564;-87
2024/02/24 11:09:38;;;;;;;3.47;1.03;;;8.30;99.90;;;;;;5060297;28;20264;-89
2024/02/24 11:12:11;;;;;;;2.77;1.10;;;8.30;99.90;;;;;;5060666;28;20208;-87
2024/02/24 11:14:47;;;;;;;3.50;1.33;;;8.60;99.90;;;;;;5060364;28;20177;-88
2024/02/24 11:17:33;;;;;;;2.97;1.57;;;8.70;99.90;;;;;;5069958;28;20182;-89
2024/02/24 11:19:59;;;;;;;5.77;1.60;;;8.60;99.90;;;;;;5059249;28;20319;-91
2024/02/24 11:22:27;;;;;;;3.73;1.27;;;8.60;99.90;;;;;;5059389;28;20212;-87
2024/02/24 11:25:01;;;;;;;2.73;1.60;;;8.30;99.90;;;;;;5077768;28;20584;-87
2024/02/24 11:27:36;;;;;;;3.93;1.20;;;8.20;99.90;;;;;;5051518;28;20264;-86
2024/02/24 11:30:36;;;;;;;6.27;1.77;;;8.10;99.90;;;;;;5060389;28;20176;-88
2024/02/24 11:33:20;;;;;;;1.57;0.90;;;8.10;99.90;;;;;;5056525;28;20173;-88
2024/02/24 11:35:53;;;;;;;4.03;1.60;;;8.30;99.90;;;;;;5053114;28;20185;-91
2024/02/24 11:38:19;;;;;;;2.10;0.97;;;8.60;99.90;;;;;;5071091;28;20608;-89
2024/02/24 11:40:48;;;;;;;1.87;0.80;;;9.00;99.90;;;;;;5059968;28;20177;-92
2024/02/24 11:43:16;;;;;;;1.20;0.70;;;9.20;99.90;;;;;;5059825;28;20181;-87
2024/02/24 11:45:51;;;;;;;1.52;0.75;;;9.30;99.90;;;;;;5060016;28;20184;-92
2024/02/24 11:48:19;;;;;;;3.03;0.60;;;9.40;99.90;;;;;;5059542;28;20184;-89
2024/02/24 11:50:45;;;;;;;1.33;0.87;;;9.30;99.90;;;;;;5059503;28;20181;-90
2024/02/24 11:53:13;;;;;;;1.65;0.90;;;9.40;99.90;;;;;;5076435;28;20885;-89
2024/02/24 11:55:42;;;;;;;2.88;0.93;;;9.50;99.90;;;;;;5059666;28;20189;-93
2024/02/24 11:58:08;;;;;;;1.50;0.80;;;9.50;99.90;;;;;;5050295;28;20641;-90
2024/02/24 12:00:38;;;;;;;1.70;1.00;;;9.60;99.90;;;;;;5039207;28;20209;-91
2024/02/24 12:03:05;;;;;;;1.88;1.00;;;9.60;99.90;;;;;;5039419;28;20178;-88
2024/02/24 12:05:31;;;;;;;3.92;0.77;;;9.50;99.90;;;;;;5051405;28;20307;-91
2024/02/24 12:08:04;;;;;;;2.67;0.80;;;9.20;99.90;;;;;;5051848;28;20182;-92
2024/02/24 12:10:36;;;;;;;1.13;0.70;;;8.90;99.90;;;;;;5059393;28;20199;-92
2024/02/24 12:13:08;;;;;;;1.90;0.95;;;8.60;99.90;;;;;;5059176;28;20326;-92
2024/02/24 12:15:36;;;;;;;2.93;0.93;;;8.50;99.90;;;;;;5054944;28;20177;-89
2024/02/24 12:18:04;;;;;;;3.00;1.07;;;8.30;99.90;;;;;;5038746;28;20320;-88
2024/02/24 12:20:30;;;;;;;2.10;1.23;;;8.20;99.90;;;;;;5051070;28;20174;-88
2024/02/24 12:23:05;;;;;;;1.63;0.70;;;8.20;99.90;;;;;;5058981;28;20176;-88
2024/02/24 12:25:35;;;;;;;2.30;0.93;;;8.10;99.90;;;;;;5058885;28;20177;-87
2024/02/24 12:28:03;;;;;;;1.40;0.60;;;8.10;99.90;;;;;;5050473;28;20200;-90
2024/02/24 12:30:40;;;;;;;1.27;0.93;;;8.10;99.90;;;;;;5050580;28;20616;-88
2024/02/24 12:33:09;;;;;;;3.30;1.03;;;8.20;99.90;;;;;;5058684;28;20191;-89
2024/02/24 12:35:38;;;;;;;3.45;1.00;;;8.40;99.90;;;;;;5058426;28;20239;-89
2024/02/24 12:38:05;;;;;;;3.35;1.10;;;8.50;99.90;;;;;;5050170;28;20212;-90
2024/02/24 12:40:35;;;;;;;2.30;0.90;;;8.60;99.90;;;;;;5050564;28;20654;-89
2024/02/24 12:43:03;;;;;;;3.07;0.80;;;8.80;99.90;;;;;;5042368;28;20263;-89
2024/02/24 12:45:31;;;;;;;1.70;0.77;;;8.90;99.90;;;;;;5050306;28;20192;-89
2024/02/24 12:47:56;;;;;;;0.63;0.43;;;8.90;99.90;;;;;;5076257;28;20192;-89
2024/02/24 12:50:24;;;;;;;1.57;0.70;;;8.80;99.90;;;;;;5047044;28;20190;-90
2024/02/24 12:52:51;;;;;;;2.50;0.68;;;8.70;99.90;;;;;;5038461;28;20186;-90
2024/02/24 12:55:17;;;;;;;1.27;0.77;;;8.60;99.90;;;;;;5048591;28;20212;-89
2024/02/24 12:57:43;;;;;;;2.67;0.80;;;8.50;99.90;;;;;;5057908;28;20740;-89
2024/02/24 13:00:10;;;;;;;1.95;0.57;;;8.50;99.90;;;;;;5058050;28;20208;-92